Time;durP1;ratioP1;P1;durP2;ratioP2;P2;SDS_P1;SDS_P2;PMS_P1;PMS_P2;Temp;Humidity;BMP_temperature;BMP_pressure;BME280_temperature;BME280_humidity;BME280_pressure;Samples;Min_cycle;Max_cycle;Signal;HPM_P1;HPM_P2
2023/02/14 00:00:57;;;;;;;;;55.00;41.67;;;;;2.81;100.00;100215.25;4875007;28;101994;-70
2023/02/14 00:03:25;;;;;;;;;50.00;41.67;;;;;2.79;100.00;100225.22;4875738;28;102030;-69
2023/02/14 00:05:52;;;;;;;;;46.33;39.00;;;;;2.78;100.00;100241.34;4876838;28;103075;-69
2023/02/14 00:08:19;;;;;;;;;51.67;41.00;;;;;2.74;100.00;100222.00;4870820;28;108856;-69
2023/02/14 00:10:45;;;;;;;;;38.75;35.50;;;;;2.75;100.00;100213.00;4879711;28;102397;-69
2023/02/14 00:13:13;;;;;;;;;53.33;42.00;;;;;2.72;100.00;100215.06;4880211;28;102383;-70
2023/02/14 00:15:40;;;;;;;;;45.33;38.00;;;;;2.75;100.00;100213.00;4872560;28;102261;-69
2023/02/14 00:18:07;;;;;;;;;45.67;38.00;;;;;2.75;100.00;100214.84;4878009;28;110052;-69
2023/02/14 00:20:35;;;;;;;;;48.33;35.67;;;;;2.70;100.00;100218.69;4886527;28;102514;-69
2023/02/14 00:23:02;;;;;;;;;46.33;36.67;;;;;2.73;100.00;100222.13;4885565;28;102576;-69
2023/02/14 00:25:29;;;;;;;;;45.33;36.00;;;;;2.64;100.00;100219.16;4891098;28;102246;-70
2023/02/14 00:27:56;;;;;;;;;56.67;42.00;;;;;2.63;100.00;100222.78;4885784;28;103791;-69
2023/02/14 00:30:23;;;;;;;;;40.67;34.33;;;;;2.64;100.00;100218.28;4878192;28;102515;-70
2023/02/14 00:32:50;;;;;;;;;44.67;36.00;;;;;2.59;99.62;100207.94;4879052;28;103759;-69
2023/02/14 00:35:17;;;;;;;;;41.67;31.67;;;;;2.68;99.75;100236.66;4878516;28;102353;-68
2023/02/14 00:37:46;;;;;;;;;50.33;35.33;;;;;2.68;99.24;100239.31;4882560;28;104009;-69
2023/02/14 00:40:14;;;;;;;;;49.00;35.67;;;;;2.68;99.88;100233.13;4862894;28;102398;-69
2023/02/14 00:42:41;;;;;;;;;45.67;38.00;;;;;2.69;98.63;100227.69;4877113;28;102170;-69
2023/02/14 00:45:08;;;;;;;;;44.67;36.00;;;;;2.67;98.39;100234.94;4882315;28;102199;-69
2023/02/14 00:47:35;;;;;;;;;43.33;37.00;;;;;2.65;99.12;100241.38;4878352;28;103987;-69
2023/02/14 00:50:03;;;;;;;;;44.67;37.33;;;;;2.70;97.99;100244.56;4886648;28;102360;-70
2023/02/14 00:52:31;;;;;;;;;54.67;38.33;;;;;2.65;97.67;100238.69;4874401;28;102497;-69
2023/02/14 00:54:57;;;;;;;;;48.00;39.33;;;;;2.64;96.83;100228.97;4882781;28;102526;-69
2023/02/14 00:57:24;;;;;;;;;53.67;39.00;;;;;2.65;96.43;100231.53;4877370;28;104042;-69
2023/02/14 00:59:51;;;;;;;;;55.00;39.00;;;;;2.68;95.86;100233.13;4888534;28;102663;-69
2023/02/14 01:02:18;;;;;;;;;32.75;28.00;;;;;2.70;95.62;100234.72;4883952;28;102381;-70
2023/02/14 01:04:45;;;;;;;;;44.00;37.67;;;;;2.69;95.98;100230.34;4863193;28;102941;-69
2023/02/14 01:07:12;;;;;;;;;40.25;31.00;;;;;2.74;95.45;100237.19;4877226;28;104015;-69
2023/02/14 01:09:39;;;;;;;;;27.50;24.00;;;;;2.77;94.61;100235.13;4884243;28;102415;-69
2023/02/14 01:12:06;;;;;;;;;35.75;31.50;;;;;2.76;93.36;100221.88;4877479;28;102203;-69
2023/02/14 01:14:33;;;;;;;;;34.00;24.75;;;;;2.76;94.26;100209.38;4873854;28;102426;-70
2023/02/14 01:17:00;;;;;;;;;40.50;32.50;;;;;2.76;93.98;100208.53;4880426;28;104022;-69
2023/02/14 01:19:27;;;;;;;;;27.25;23.50;;;;;2.78;94.50;100210.13;4875011;28;102452;-69
2023/02/14 01:21:54;;;;;;;;;35.75;28.00;;;;;2.78;93.22;100209.28;4878570;28;102239;-68
2023/02/14 01:24:21;;;;;;;;;36.00;33.00;;;;;2.76;93.62;100205.84;4884014;28;102194;-68
2023/02/14 01:26:48;;;;;;;;;36.75;31.00;;;;;2.71;94.12;100211.53;4878783;28;108561;-69
2023/02/14 01:29:15;;;;;;;;;29.75;27.75;;;;;2.73;94.01;100200.75;4876981;28;102027;-69
2023/02/14 01:31:43;;;;;;;;;31.00;30.33;;;;;2.68;94.47;100215.28;4875098;28;102106;-68
2023/02/14 01:34:10;;;;;;;;;35.00;30.75;;;;;2.69;94.28;100200.97;4875233;28;102330;-69
2023/02/14 01:36:38;;;;;;;;;26.00;20.25;;;;;2.78;94.53;100211.94;4873603;28;103987;-69
2023/02/14 01:39:09;;;;;;;;;31.25;23.25;;;;;2.79;94.32;100206.50;4884080;28;102251;-69
2023/02/14 01:41:37;;;;;;;;;30.50;27.50;;;;;2.78;94.52;100203.94;4885350;28;102070;-69
2023/02/14 01:44:06;;;;;;;;;38.00;26.75;;;;;2.74;95.60;100199.78;4889416;28;102420;-69
2023/02/14 01:46:36;;;;;;;;;35.50;32.50;;;;;2.68;96.06;100201.09;4875007;28;103727;-69
2023/02/14 01:49:27;;;;;;;;;40.25;31.00;;;;;2.74;96.13;100202.47;4878670;28;102764;-69
2023/02/14 01:52:07;;;;;;;;;32.75;26.75;;;;;2.77;95.61;100196.88;4888434;28;101988;-69
2023/02/14 01:54:37;;;;;;;;;27.75;25.00;;;;;2.76;95.41;100203.19;4894385;28;102355;-69
2023/02/14 01:57:09;;;;;;;;;34.25;26.00;;;;;2.73;95.88;100203.41;4895117;28;104067;-70
2023/02/14 01:59:42;;;;;;;;;24.50;16.50;;;;;2.76;94.78;100200.50;4889249;28;102663;-69
2023/02/14 02:02:09;;;;;;;;;40.25;27.25;;;;;2.71;95.60;100198.19;4890841;28;102505;-69
2023/02/14 02:04:41;;;;;;;;;34.25;27.00;;;;;2.69;94.44;100195.63;4836540;28;102485;-68
2023/02/14 02:07:28;;;;;;;;;43.00;34.67;;;;;2.65;95.38;100191.50;4881603;28;103767;-69
2023/02/14 02:10:18;;;;;;;;;41.67;37.67;;;;;2.61;96.26;100191.81;4877005;28;102328;-69
2023/02/14 02:13:19;;;;;;;;;45.33;39.00;;;;;2.55;95.66;100192.25;4882110;28;102334;-70
2023/02/14 02:16:18;;;;;;;;;49.00;39.67;;;;;2.55;95.40;100187.78;4893609;28;102552;-68
2023/02/14 02:19:33;;;;;;;;;41.33;34.33;;;;;2.57;95.48;100201.00;4887476;28;108308;-68
2023/02/14 02:22:40;;;;;;;;;48.67;35.33;;;;;2.59;96.45;100196.41;4891753;28;102281;-69
2023/02/14 02:25:17;;;;;;;;;46.67;37.67;;;;;2.59;96.52;100199.09;4875185;28;102107;-68
2023/02/14 02:28:24;;;;;;;;;33.50;30.25;;;;;2.61;96.27;100198.00;4880702;28;102430;-69
2023/02/14 02:31:18;;;;;;;;;35.00;28.33;;;;;2.60;95.68;100198.97;4880407;28;108626;-69
2023/02/14 02:34:06;;;;;;;;;38.67;31.00;;;;;2.59;96.53;100205.28;4892002;28;102359;-69
2023/02/14 02:36:57;;;;;;;;;41.25;34.75;;;;;2.57;96.26;100201.84;4886168;28;101940;-69
2023/02/14 02:39:27;;;;;;;;;32.75;26.00;;;;;2.63;96.46;100201.41;4881116;28;102419;-68
2023/02/14 02:42:24;;;;;;;;;47.00;36.00;;;;;2.56;95.92;100200.19;4896272;28;104180;-69
2023/02/14 02:44:57;;;;;;;;;45.67;39.00;;;;;2.53;95.98;100197.69;4893521;28;102138;-69
2023/02/14 02:47:27;;;;;;;;;43.67;36.00;;;;;2.60;96.45;100200.81;4879322;28;102172;-70
2023/02/14 02:53:23;;;;;;;;;31.00;28.33;;;;;2.68;95.84;100204.63;4891018;28;108597;-68
2023/02/14 02:58:57;;;;;;;;;35.00;24.50;;;;;2.72;95.75;100199.88;4892966;28;102237;-68
2023/02/14 03:01:32;;;;;;;;;31.75;26.50;;;;;2.72;96.20;100196.38;4891702;28;102594;-69
2023/02/14 03:06:50;;;;;;;;;43.33;36.33;;;;;2.54;96.06;100195.88;4864710;28;102146;-69
2023/02/14 03:09:26;;;;;;;;;42.33;34.33;;;;;2.56;96.00;100197.50;4889036;28;101888;-69
2023/02/14 03:12:08;;;;;;;;;34.50;28.75;;;;;2.61;96.21;100199.84;4894003;28;102463;-69
2023/02/14 03:15:05;;;;;;;;;32.00;28.50;;;;;2.60;96.56;100190.13;4875971;28;108878;-69
2023/02/14 03:18:01;;;;;;;;;35.00;30.67;;;;;2.53;95.99;100186.16;4873774;28;102751;-69
2023/02/14 03:21:05;;;;;;;;;33.00;30.33;;;;;2.57;95.98;100188.50;4885891;28;102321;-69
2023/02/14 03:23:38;;;;;;;;;26.00;20.75;;;;;2.62;95.71;100193.50;4892671;28;102315;-69
2023/02/14 03:26:26;;;;;;;;;39.00;27.00;;;;;2.58;96.88;100194.69;4892298;28;103608;-69
2023/02/14 03:29:05;;;;;;;;;39.50;29.75;;;;;2.57;95.96;100193.84;4890214;28;102084;-70
2023/02/14 03:31:54;;;;;;;;;32.75;24.00;;;;;2.61;96.28;100191.81;4887922;28;102077;-69
2023/02/14 03:34:56;;;;;;;;;29.75;27.50;;;;;2.57;95.73;100199.19;4890603;28;102124;-69
2023/02/14 03:37:51;;;;;;;;;34.33;31.00;;;;;2.53;96.29;100208.38;4889107;28;109110;-69
2023/02/14 03:40:36;;;;;;;;;41.00;31.67;;;;;2.53;95.48;100204.84;4890800;28;102051;-69
2023/02/14 03:43:23;;;;;;;;;39.50;31.25;;;;;2.52;95.92;100204.00;4888235;28;102165;-69
2023/02/14 03:46:09;;;;;;;;;35.25;26.25;;;;;2.57;95.33;100212.53;4890456;28;102110;-69
2023/02/14 03:48:38;;;;;;;;;34.75;26.75;;;;;2.54;95.39;100196.75;4881098;28;108707;-69
2023/02/14 03:51:10;;;;;;;;;38.25;28.50;;;;;2.57;95.84;100199.19;4883716;28;102191;-69
2023/02/14 03:53:42;;;;;;;;;23.00;19.25;;;;;2.65;95.86;100204.84;4893454;28;102250;-69
2023/02/14 03:56:13;;;;;;;;;16.50;14.50;;;;;2.69;95.04;100206.31;4890944;28;102006;-69
2023/02/14 03:58:49;;;;;;;;;17.50;13.25;;;;;2.68;94.36;100204.63;4889321;28;103038;-69
2023/02/14 04:01:33;;;;;;;;;22.50;19.25;;;;;2.64;93.89;100200.47;4897127;28;102444;-69
2023/02/14 04:04:03;;;;;;;;;31.75;22.50;;;;;2.60;94.17;100207.00;4892328;28;102345;-69
2023/02/14 04:06:30;;;;;;;;;23.25;20.00;;;;;2.64;94.09;100204.94;4872308;28;102197;-69
2023/02/14 04:08:57;;;;;;;;;24.00;18.25;;;;;2.65;94.43;100201.31;4892431;28;104039;-69
2023/02/14 04:11:24;;;;;;;;;24.50;19.50;;;;;2.65;93.06;100212.84;4873760;28;102353;-69
2023/02/14 04:13:51;;;;;;;;;24.50;17.50;;;;;2.57;93.55;100201.84;4890420;28;102163;-69
2023/02/14 04:16:17;;;;;;;;;24.00;19.00;;;;;2.62;93.92;100205.03;4895043;28;102441;-69
2023/02/14 04:21:30;;;;;;;;;39.00;28.00;;;;;2.51;93.62;100210.31;4882103;28;102293;-69
2023/02/14 04:23:57;;;;;;;;;48.00;30.25;;;;;2.52;93.73;100208.50;4871928;28;102225;-69
2023/02/14 04:26:24;;;;;;;;;29.00;23.00;;;;;2.60;93.16;100209.66;4876448;28;103710;-69
2023/02/14 04:28:51;;;;;;;;;21.25;18.25;;;;;2.62;92.74;100210.38;4891023;28;109092;-69
2023/02/14 04:31:18;;;;;;;;;20.00;16.75;;;;;2.62;92.30;100207.72;4884480;28;102316;-68
2023/02/14 04:33:46;;;;;;;;;27.00;21.75;;;;;2.60;92.65;100207.00;4890059;28;102475;-68
2023/02/14 04:36:13;;;;;;;;;39.50;28.25;;;;;2.54;92.92;100206.56;4891311;28;102181;-69
2023/02/14 04:38:40;;;;;;;;;33.75;26.00;;;;;2.50;92.22;100203.28;4888837;28;103909;-69
2023/02/14 04:41:07;;;;;;;;;32.00;27.50;;;;;2.59;92.33;100217.78;4891362;28;102724;-70
2023/02/14 04:43:34;;;;;;;;;27.25;20.75;;;;;2.57;91.93;100209.88;4893121;28;102444;-69
2023/02/14 04:46:01;;;;;;;;;26.25;23.00;;;;;2.58;92.20;100206.25;4893656;28;102422;-69
2023/02/14 04:48:28;;;;;;;;;19.00;16.50;;;;;2.61;92.35;100211.34;4888734;28;104790;-69
2023/02/14 04:50:55;;;;;;;;;23.00;19.00;;;;;2.67;91.74;100212.72;4895366;28;102168;-68
2023/02/14 04:53:22;;;;;;;;;16.75;14.75;;;;;2.70;92.22;100213.34;4885915;28;102085;-69
2023/02/14 04:55:50;;;;;;;;;13.25;9.00;;;;;2.73;91.24;100222.97;4894510;28;102462;-68
2023/02/14 04:58:17;;;;;;;;;8.00;6.50;;;;;2.76;91.92;100221.88;4892566;28;103998;-68
2023/02/14 05:00:44;;;;;;;;;10.25;9.00;;;;;2.74;91.16;100213.16;4894352;28;102059;-69
2023/02/14 05:03:11;;;;;;;;;8.75;7.50;;;;;2.76;91.55;100213.88;4894983;28;102029;-69
2023/02/14 05:05:38;;;;;;;;;11.75;6.75;;;;;2.76;91.54;100214.72;4896620;28;102317;-70
2023/02/14 05:08:05;;;;;;;;;10.75;5.75;;;;;2.77;91.48;100215.56;4894658;28;104033;-69
2023/02/14 05:10:32;;;;;;;;;7.25;7.00;;;;;2.77;91.04;100218.25;4891155;28;102089;-69
2023/02/14 05:13:00;;;;;;;;;10.25;9.25;;;;;2.72;91.69;100215.06;4894613;28;102188;-70
2023/02/14 05:15:27;;;;;;;;;13.00;9.50;;;;;2.75;91.77;100223.69;4897012;28;102023;-69
2023/02/14 05:17:53;;;;;;;;;9.25;5.25;;;;;2.75;91.46;100217.53;4896619;28;108637;-69
2023/02/14 05:20:20;;;;;;;;;7.00;7.00;;;;;2.77;91.34;100223.59;4894928;28;103507;-69
2023/02/14 05:22:47;;;;;;;;;5.75;5.25;;;;;2.78;92.20;100219.97;4895774;28;102276;-69
2023/02/14 05:25:14;;;;;;;;;6.00;5.25;;;;;2.78;92.00;100230.66;4895241;28;102257;-69
2023/02/14 05:27:41;;;;;;;;;8.25;7.00;;;;;2.77;92.33;100221.78;4896354;28;104021;-69
2023/02/14 05:30:09;;;;;;;;;8.75;5.00;;;;;2.77;92.12;100228.94;4895582;28;102485;-69
2023/02/14 05:32:36;;;;;;;;;5.25;4.50;;;;;2.76;91.69;100222.72;4891659;28;102340;-69
2023/02/14 05:35:04;;;;;;;;;6.00;6.00;;;;;2.76;91.85;100221.88;4895047;28;102307;-69
2023/02/14 05:37:31;;;;;;;;;6.75;6.50;;;;;2.74;92.02;100223.81;4892664;28;104248;-69
2023/02/14 05:39:58;;;;;;;;;5.00;3.50;;;;;2.73;91.94;100228.31;4896283;28;102172;-71
2023/02/14 05:42:25;;;;;;;;;6.00;5.50;;;;;2.73;92.53;100238.13;4895680;28;102362;-69
2023/02/14 05:44:52;;;;;;;;;6.25;4.00;;;;;2.72;91.67;100231.94;4890617;28;102100;-69
2023/02/14 05:47:18;;;;;;;;;3.00;2.00;;;;;2.70;92.89;100240.06;4895088;28;104352;-69
2023/02/14 05:49:45;;;;;;;;;6.00;5.25;;;;;2.70;92.59;100234.72;4892568;28;102291;-70
2023/02/14 05:52:12;;;;;;;;;3.50;3.50;;;;;2.72;92.59;100252.44;4889507;28;102464;-68
2023/02/14 05:54:39;;;;;;;;;5.25;5.00;;;;;2.71;91.85;100248.91;4871247;28;102560;-69
2023/02/14 05:57:06;;;;;;;;;2.50;2.00;;;;;2.69;92.87;100238.38;4891880;28;104274;-70
2023/02/14 05:59:33;;;;;;;;;3.50;3.00;;;;;2.70;92.50;100247.25;4890405;28;102192;-70
2023/02/14 06:02:00;;;;;;;;;1.75;1.50;;;;;2.66;92.40;100249.25;4899695;28;102298;-69
2023/02/14 06:04:27;;;;;;;;;5.00;5.00;;;;;2.70;92.19;100247.25;4894556;28;104669;-72
2023/02/14 06:06:54;;;;;;;;;6.00;5.00;;;;;2.69;92.53;100257.06;4895799;28;104078;-69
2023/02/14 06:09:21;;;;;;;;;3.50;2.25;;;;;2.68;92.82;100254.50;4894653;28;102850;-69
2023/02/14 06:11:48;;;;;;;;;8.50;8.00;;;;;2.66;91.85;100251.91;4894130;28;102210;-70
2023/02/14 06:14:16;;;;;;;;;9.00;4.50;;;;;2.68;92.37;100260.69;4893863;28;102279;-69
2023/02/14 06:16:43;;;;;;;;;5.25;3.50;;;;;2.69;92.15;100269.56;4894520;28;103930;-69
2023/02/14 06:19:10;;;;;;;;;5.00;2.75;;;;;2.68;92.44;100263.34;4895525;28;102333;-69
2023/02/14 06:21:36;;;;;;;;;9.00;6.25;;;;;2.67;92.44;100264.31;4894789;28;102455;-69
2023/02/14 06:24:04;;;;;;;;;10.25;9.25;;;;;2.60;92.34;100255.06;4886597;28;102300;-69
2023/02/14 06:26:31;;;;;;;;;9.00;6.50;;;;;2.68;92.97;100258.03;4894725;28;104057;-69
2023/02/14 06:28:58;;;;;;;;;6.50;3.50;;;;;2.69;92.70;100274.91;4893962;28;103014;-70
2023/02/14 06:31:25;;;;;;;;;5.00;5.00;;;;;2.67;93.11;100261.66;4879515;28;102473;-68
2023/02/14 06:33:53;;;;;;;;;16.25;13.25;;;;;2.61;92.72;100261.25;4897166;28;102524;-69
2023/02/14 06:36:21;;;;;;;;;18.25;12.50;;;;;2.66;93.17;100267.94;4895070;28;104022;-69
2023/02/14 06:38:49;;;;;;;;;20.25;13.75;;;;;2.59;92.52;100258.69;4894520;28;102073;-69
2023/02/14 06:41:16;;;;;;;;;18.50;14.25;;;;;2.62;92.81;100268.28;4900304;28;102521;-69
2023/02/14 06:43:45;;;;;;;;;15.00;13.50;;;;;2.65;93.56;100279.63;4900787;28;102967;-69
2023/02/14 06:46:11;;;;;;;;;19.00;17.00;;;;;2.62;93.49;100271.81;4894882;28;103989;-69
2023/02/14 06:48:39;;;;;;;;;23.75;20.50;;;;;2.61;93.52;100272.75;4880055;28;102519;-69
2023/02/14 06:51:06;;;;;;;;;17.25;12.50;;;;;2.52;93.76;100256.56;4906522;28;102447;-69
2023/02/14 06:53:32;;;;;;;;;28.00;19.25;;;;;2.64;93.37;100275.22;4902818;28;102461;-69
2023/02/14 06:56:00;;;;;;;;;15.50;14.50;;;;;2.57;93.39;100265.94;4894909;28;104002;-69
2023/02/14 06:58:27;;;;;;;;;20.00;15.50;;;;;2.67;93.28;100275.00;4899851;28;102029;-69
2023/02/14 07:00:54;;;;;;;;;15.25;13.25;;;;;2.70;93.20;100282.78;4897711;28;101967;-68
2023/02/14 07:03:22;;;;;;;;;26.00;21.75;;;;;2.67;94.08;100271.47;4902621;28;102330;-69
2023/02/14 07:05:49;;;;;;;;;27.50;21.00;;;;;2.70;93.52;100277.44;4896691;28;104908;-69
2023/02/14 07:08:16;;;;;;;;;19.25;16.00;;;;;2.77;93.03;100272.53;4900780;28;103204;-68
2023/02/14 07:10:43;;;;;;;;;32.25;29.50;;;;;2.72;93.60;100273.81;4886816;28;102340;-68
2023/02/14 07:13:10;;;;;;;;;29.75;22.50;;;;;2.80;92.62;100271.44;4906476;28;104578;-68
2023/02/14 07:15:37;;;;;;;;;25.25;18.00;;;;;2.89;92.30;100281.44;4905867;28;103995;-69
2023/02/14 07:18:07;;;;;;;;;36.75;25.75;;;;;2.88;92.56;100274.44;4913283;28;102536;-69
2023/02/14 07:20:34;;;;;;;;;25.25;18.00;;;;;2.95;92.08;100281.88;4897139;28;102074;-70
2023/02/14 07:23:01;;;;;;;;;33.25;25.00;;;;;2.95;93.15;100275.69;4901929;28;102475;-70
2023/02/14 07:25:28;;;;;;;;;37.75;31.75;;;;;2.94;92.34;100284.66;4903916;28;103716;-68
2023/02/14 07:27:55;;;;;;;;;42.00;38.67;;;;;2.94;91.50;100279.31;4906326;28;102474;-69
2023/02/14 07:30:23;;;;;;;;;48.67;36.67;;;;;2.97;93.74;100271.91;4907911;28;102408;-69
2023/02/14 07:32:50;;;;;;;;;56.33;38.00;;;;;2.96;91.86;100282.72;4910999;28;102243;-69
2023/02/14 07:35:17;;;;;;;;;56.67;41.67;;;;;2.93;92.87;100277.59;4905728;28;103615;-69
2023/02/14 07:37:44;;;;;;;;;63.67;49.00;;;;;2.88;91.96;100280.59;4905862;28;102791;-69
2023/02/14 07:40:12;;;;;;;;;59.67;45.00;;;;;3.03;91.46;100278.63;4869114;28;102126;-69
2023/02/14 07:42:41;;;;;;;;;46.67;40.67;;;;;3.05;91.63;100279.38;4863938;28;109964;-69
2023/02/14 07:45:09;;;;;;;;;59.00;41.67;;;;;3.02;91.10;100287.59;4878977;28;103984;-69
2023/02/14 07:47:49;;;;;;;;;50.25;39.50;;;;;3.07;91.37;100280.13;4871858;28;102373;-69
2023/02/14 07:50:16;;;;;;;;;53.33;43.00;;;;;3.04;90.61;100280.34;4848791;28;104284;-69
2023/02/14 07:52:44;;;;;;;;;55.00;41.00;;;;;3.11;91.23;100282.44;4882363;28;102273;-69
2023/02/14 07:55:11;;;;;;;;;57.33;41.67;;;;;3.09;90.82;100272.84;4885455;28;104060;-69
2023/02/14 07:57:38;;;;;;;;;50.67;42.33;;;;;3.07;90.33;100269.44;4876171;28;102191;-70
2023/02/14 08:00:06;;;;;;;;;51.33;39.00;;;;;3.18;89.88;100272.16;4878046;28;102118;-69
2023/02/14 08:02:33;;;;;;;;;39.50;35.50;;;;;3.20;90.27;100280.91;4878738;28;102089;-69
2023/02/14 08:05:00;;;;;;;;;40.75;33.25;;;;;3.23;90.07;100279.84;4872500;28;103996;-69
2023/02/14 08:07:27;;;;;;;;;45.75;35.75;;;;;3.23;89.15;100283.38;4886167;28;101975;-70
2023/02/14 08:09:54;;;;;;;;;43.50;38.00;;;;;3.19;88.85;100276.56;4884310;28;102246;-70
2023/02/14 08:17:52;;;;;;;;;39.75;32.75;;;;;3.16;89.06;100282.09;4882314;28;102380;-69
2023/02/14 08:20:19;;;;;;;;;45.00;33.50;;;;;3.18;89.31;100282.88;4871797;28;102220;-69
2023/02/14 08:22:46;;;;;;;;;32.75;30.50;;;;;3.18;88.22;100287.34;4878226;28;101941;-70
2023/02/14 08:25:13;;;;;;;;;33.00;27.50;;;;;3.22;89.94;100287.00;4872629;28;104168;-69
2023/02/14 08:27:40;;;;;;;;;34.50;31.75;;;;;3.22;88.87;100281.66;4868239;28;102257;-69
2023/02/14 08:30:07;;;;;;;;;27.00;25.50;;;;;3.29;89.29;100282.09;4863452;28;102218;-69
2023/02/14 08:32:34;;;;;;;;;53.67;36.33;;;;;3.22;88.61;100289.69;4860805;28;102343;-70
2023/02/14 08:35:01;;;;;;;;;36.25;31.25;;;;;3.34;87.98;100291.44;4858780;28;104007;-70
2023/02/14 08:37:28;;;;;;;;;40.75;34.75;;;;;3.30;87.38;100279.28;4866665;28;102075;-70
2023/02/14 08:39:55;;;;;;;;;34.75;32.00;;;;;3.31;88.32;100299.69;4873790;28;102090;-70
2023/02/14 08:42:22;;;;;;;;;35.50;28.00;;;;;3.38;88.56;100290.25;4869074;28;102415;-70
2023/02/14 08:44:49;;;;;;;;;43.50;31.75;;;;;3.43;87.71;100301.44;4889447;28;104028;-69
2023/02/14 08:47:16;;;;;;;;;33.75;28.50;;;;;3.48;88.10;100309.97;4878525;28;102030;-69
2023/02/14 08:49:43;;;;;;;;;33.75;30.50;;;;;3.56;87.81;100310.25;4888614;28;102001;-69
2023/02/14 08:52:10;;;;;;;;;25.75;18.00;;;;;3.73;87.68;100311.69;4884608;28;102160;-69
2023/02/14 08:54:37;;;;;;;;;37.25;29.50;;;;;3.66;85.76;100315.78;4887374;28;103847;-69
2023/02/14 08:57:04;;;;;;;;;35.50;29.00;;;;;3.56;86.21;100310.25;4891956;28;102108;-69
2023/02/14 08:59:31;;;;;;;;;35.75;32.75;;;;;3.59;87.10;100317.22;4881005;28;101997;-68
2023/02/14 09:01:58;;;;;;;;;39.75;29.25;;;;;3.50;87.20;100316.09;4898023;28;102193;-68
2023/02/14 09:04:25;;;;;;;;;30.50;27.25;;;;;3.57;87.36;100316.47;4877593;28;103984;-70
2023/02/14 09:06:52;;;;;;;;;37.75;29.75;;;;;3.48;86.98;100323.34;4887876;28;102355;-69
2023/02/14 09:09:19;;;;;;;;;30.00;27.75;;;;;3.57;87.48;100317.31;4885866;28;102164;-69
2023/02/14 09:11:46;;;;;;;;;38.25;33.00;;;;;3.60;86.56;100317.09;4875612;28;102221;-69
2023/02/14 09:14:14;;;;;;;;;32.25;28.50;;;;;3.61;86.58;100317.94;4874063;28;104123;-69
2023/02/14 09:16:41;;;;;;;;;33.00;32.00;;;;;3.70;86.45;100319.91;4883010;28;102494;-71
2023/02/14 09:19:09;;;;;;;;;31.00;28.75;;;;;3.66;87.05;100314.91;4877760;28;102108;-69
2023/02/14 09:21:36;;;;;;;;;36.00;30.25;;;;;3.57;87.07;100320.00;4883352;28;102408;-69
2023/02/14 09:24:03;;;;;;;;;37.25;31.25;;;;;3.71;87.21;100312.75;4888991;28;104023;-70
2023/02/14 09:26:30;;;;;;;;;36.00;29.50;;;;;3.67;87.11;100320.16;4886768;28;102075;-69
2023/02/14 09:28:57;;;;;;;;;32.00;25.50;;;;;3.77;86.23;100328.34;4885086;28;102446;-70
2023/02/14 09:31:24;;;;;;;;;38.25;31.75;;;;;3.67;86.38;100316.63;4893744;28;102526;-70
2023/02/14 09:33:51;;;;;;;;;32.75;29.25;;;;;3.73;86.40;100316.19;4879290;28;104207;-70
2023/02/14 09:36:18;;;;;;;;;41.50;33.75;;;;;3.64;86.42;100317.72;4891982;28;102033;-70
2023/02/14 09:38:45;;;;;;;;;43.25;34.25;;;;;3.66;87.54;100320.28;4878064;28;102202;-69
2023/02/14 09:41:46;;;;;;;;;33.50;30.00;;;;;3.83;86.81;100327.88;4892025;28;102515;-69
2023/02/14 09:44:34;;;;;;;;;38.75;34.50;;;;;3.96;86.13;100320.66;4870396;28;108724;-70
2023/02/14 09:47:20;;;;;;;;;42.25;33.75;;;;;4.01;85.56;100321.97;4885029;28;102625;-71
2023/02/14 09:49:50;;;;;;;;;40.50;35.00;;;;;4.06;85.29;100318.94;4870032;28;103504;-69
2023/02/14 09:52:20;;;;;;;;;38.50;31.00;;;;;4.17;84.60;100326.16;4882748;28;102094;-70
2023/02/14 09:54:54;;;;;;;;;41.00;35.75;;;;;4.12;84.35;100318.50;4881668;28;104029;-70
2023/02/14 09:57:43;;;;;;;;;35.25;33.00;;;;;4.33;85.15;100322.16;4882017;28;110065;-70
2023/02/14 10:00:26;;;;;;;;;42.25;31.50;;;;;4.18;84.72;100312.66;4882884;28;102554;-70
2023/02/14 10:02:59;;;;;;;;;36.50;27.50;;;;;4.11;84.24;100326.63;4880863;28;102338;-70
2023/02/14 10:05:30;;;;;;;;;39.25;29.50;;;;;4.20;84.83;100321.41;4871542;28;105524;-69
2023/02/14 10:08:23;;;;;;;;;37.75;29.50;;;;;4.28;85.36;100329.69;4873717;28;102253;-69
2023/02/14 10:11:13;;;;;;;;;34.50;26.50;;;;;4.15;84.85;100320.91;4856273;28;102406;-70
2023/02/14 10:13:49;;;;;;;;;35.75;28.50;;;;;4.11;84.17;100322.13;4854248;28;101992;-70
2023/02/14 10:16:19;;;;;;;;;33.50;30.25;;;;;4.11;84.86;100313.25;4878827;28;103991;-70
2023/02/14 10:19:12;;;;;;;;;34.00;26.00;;;;;4.28;83.88;100319.00;4877348;28;102094;-70
2023/02/14 10:22:07;;;;;;;;;37.50;30.50;;;;;4.21;84.19;100317.78;4861425;28;102438;-70
2023/02/14 10:25:26;;;;;;;;;31.25;24.25;;;;;4.33;83.49;100327.53;4890651;28;101999;-70
2023/02/14 10:27:57;;;;;;;;;27.25;26.00;;;;;4.18;83.66;100303.78;4828844;28;108691;-70
2023/02/14 10:30:24;;;;;;;;;32.75;27.25;;;;;4.20;84.03;100320.56;4892298;28;102223;-70
2023/02/14 10:33:06;;;;;;;;;35.75;29.25;;;;;4.13;83.72;100320.19;4874001;28;102958;-70
2023/02/14 10:35:45;;;;;;;;;31.00;26.75;;;;;4.07;83.32;100315.31;4881090;28;102548;-70
2023/02/14 10:38:31;;;;;;;;;35.00;26.75;;;;;4.10;83.93;100314.25;4878691;28;103973;-70
2023/02/14 10:41:12;;;;;;;;;27.75;24.50;;;;;4.12;83.63;100318.50;4889895;28;102327;-69
2023/02/14 10:43:39;;;;;;;;;29.75;25.00;;;;;4.16;83.88;100314.59;4894109;28;102319;-69
2023/02/14 10:46:14;;;;;;;;;20.50;15.00;;;;;4.30;83.08;100313.53;4903016;28;102570;-69
2023/02/14 10:48:59;;;;;;;;;28.00;21.75;;;;;4.30;83.11;100308.19;4894713;28;104003;-70
2023/02/14 10:51:45;;;;;;;;;31.75;21.00;;;;;4.25;84.15;100308.53;4888488;28;102054;-70
2023/02/14 10:54:18;;;;;;;;;22.75;18.00;;;;;4.25;82.92;100313.88;4893293;28;102043;-70
2023/02/14 10:56:53;;;;;;;;;20.00;15.50;;;;;4.25;81.08;100308.53;4893995;28;102494;-69
2023/02/14 10:59:34;;;;;;;;;16.25;14.00;;;;;4.13;81.98;100314.84;4894619;28;104177;-69
2023/02/14 11:02:03;;;;;;;;;24.00;19.25;;;;;4.14;82.11;100307.66;4889198;28;102273;-69
2023/02/14 11:04:31;;;;;;;;;14.00;10.25;;;;;4.18;82.28;100310.00;4892893;28;102397;-69
2023/02/14 11:06:58;;;;;;;;;18.75;16.75;;;;;4.17;82.41;100300.25;4894458;28;102224;-70
2023/02/14 11:09:25;;;;;;;;;21.00;17.00;;;;;4.05;82.54;100303.88;4894854;28;104130;-69
2023/02/14 11:11:57;;;;;;;;;27.50;21.75;;;;;4.11;83.04;100295.34;4893996;28;105274;-69
2023/02/14 11:14:31;;;;;;;;;22.25;18.50;;;;;4.15;82.45;100294.16;4892977;28;102457;-69
2023/02/14 11:16:59;;;;;;;;;18.50;18.50;;;;;4.25;83.59;100297.81;4897548;28;102286;-69
2023/02/14 11:19:33;;;;;;;;;22.25;19.00;;;;;4.27;81.53;100285.19;4885718;28;104452;-70
2023/02/14 11:22:03;;;;;;;;;21.50;16.00;;;;;4.24;81.18;100285.41;4878824;28;102063;-69
2023/02/14 11:24:37;;;;;;;;;21.00;20.00;;;;;4.28;83.05;100289.53;4894351;28;102505;-69
2023/02/14 11:27:16;;;;;;;;;23.00;21.00;;;;;4.16;82.02;100281.63;4896744;28;102607;-70
2023/02/14 11:29:51;;;;;;;;;25.75;21.00;;;;;4.20;82.93;100289.28;4903166;28;104026;-69
2023/02/14 11:32:25;;;;;;;;;26.75;23.75;;;;;4.06;81.89;100289.50;4889183;28;102123;-69
2023/02/14 11:35:16;;;;;;;;;17.00;16.00;;;;;4.07;82.91;100280.50;4894434;28;102429;-69
2023/02/14 11:37:49;;;;;;;;;22.75;19.25;;;;;4.19;82.89;100294.78;4891142;28;102426;-69
2023/02/14 11:40:31;;;;;;;;;22.75;19.75;;;;;4.16;82.95;100286.97;4889845;28;103967;-70
2023/02/14 11:43:11;;;;;;;;;22.75;20.75;;;;;4.15;82.43;100283.44;4865724;28;103267;-69
2023/02/14 11:45:43;;;;;;;;;26.25;20.75;;;;;4.06;82.01;100289.50;4867434;28;102182;-69
2023/02/14 11:48:22;;;;;;;;;30.75;20.50;;;;;4.17;82.73;100286.00;4875475;28;102402;-69
2023/02/14 11:51:13;;;;;;;;;20.50;17.50;;;;;4.19;82.68;100274.19;4862032;28;108800;-70